Time;durP1;ratioP1;P1;durP2;ratioP2;P2;SDS_P1;SDS_P2;PMS_P1;PMS_P2;Temp;Humidity;BMP_temperature;BMP_pressure;BME280_temperature;BME280_humidity;BME280_pressure;Samples;Min_cycle;Max_cycle;Signal;HPM_P1;HPM_P2
2022/12/19 00:02:21;;;;;;;88.97;42.03;;;;;;;;;;6267561;28;20347;-75
2022/12/19 00:05:22;;;;;;;74.30;32.33;;;;;;;;;;6266114;28;20118;-74
2022/12/19 00:08:24;;;;;;;66.25;29.23;;;;;;;;;;6262961;28;20118;-75
2022/12/19 00:11:28;;;;;;;66.78;30.05;;;;;;;;;;6263715;28;20045;-73
2022/12/19 00:14:30;;;;;;;;;;;;;;;;;;6264671;28;20049;-75
2022/12/19 00:17:31;;;;;;;61.10;29.00;;;;;;;;;;6262715;28;20132;-74
2022/12/19 00:20:33;;;;;;;60.40;30.58;;;;;;;;;;6263980;28;20120;-74
2022/12/19 00:23:36;;;;;;;62.13;29.83;;;;;;;;;;6264817;28;20120;-75
2022/12/19 00:26:39;;;;;;;62.13;29.42;;;;;;;;;;6264523;28;20061;-75
2022/12/19 00:29:40;;;;;;;69.00;30.92;;;;;;;;;;6260881;28;20049;-74
2022/12/19 00:32:42;;;;;;;64.00;30.10;;;;;;;;;;6263277;28;20057;-74
2022/12/19 00:35:44;;;;;;;62.67;31.00;;;;;;;;;;6265246;28;20049;-75
2022/12/19 00:38:46;;;;;;;68.85;32.47;;;;;;;;;;6264919;28;20049;-74
2022/12/19 00:41:49;;;;;;;62.08;31.67;;;;;;;;;;6261897;28;20052;-76
2022/12/19 00:44:51;;;;;;;67.53;32.13;;;;;;;;;;6265196;28;20041;-74
2022/12/19 00:47:53;;;;;;;67.97;32.42;;;;;;;;;;6263099;28;20045;-75
2022/12/19 00:50:59;;;;;;;69.50;31.60;;;;;;;;;;6263513;28;20053;-75
2022/12/19 00:54:01;;;;;;;68.05;32.40;;;;;;;;;;6261440;28;20115;-75
2022/12/19 00:57:04;;;;;;;72.57;34.08;;;;;;;;;;6260981;28;20054;-75
2022/12/19 01:00:08;;;;;;;72.47;33.53;;;;;;;;;;6263153;28;20049;-75
2022/12/19 01:03:09;;;;;;;64.78;31.55;;;;;;;;;;6263795;28;20060;-75
2022/12/19 01:06:11;;;;;;;69.00;30.88;;;;;;;;;;6267348;28;20058;-75
2022/12/19 01:09:13;;;;;;;70.68;30.70;;;;;;;;;;6268917;28;20321;-75
2022/12/19 01:15:39;;;;;;;75.78;32.28;;;;;;;;;;6267729;28;20069;-75
2022/12/19 01:18:41;;;;;;;66.90;32.40;;;;;;;;;;6267317;28;20053;-75
2022/12/19 01:21:42;;;;;;;73.50;33.05;;;;;;;;;;6265365;28;20065;-76
2022/12/19 01:24:44;;;;;;;72.78;33.83;;;;;;;;;;6267758;28;20242;-76
2022/12/19 01:27:47;;;;;;;72.95;32.90;;;;;;;;;;6266073;28;20067;-76
2022/12/19 01:30:49;;;;;;;77.85;34.30;;;;;;;;;;6268668;28;20120;-76
2022/12/19 01:33:51;;;;;;;66.38;31.08;;;;;;;;;;6265754;28;20045;-76
2022/12/19 01:36:52;;;;;;;68.80;31.73;;;;;;;;;;6270089;28;20461;-76
2022/12/19 01:39:54;;;;;;;69.57;31.80;;;;;;;;;;6265619;28;20419;-75
2022/12/19 01:42:57;;;;;;;67.65;31.95;;;;;;;;;;6268421;28;20660;-75
2022/12/19 01:46:00;;;;;;;81.25;34.65;;;;;;;;;;6268170;28;20235;-75
2022/12/19 01:49:03;;;;;;;69.97;33.00;;;;;;;;;;6269028;28;20053;-75
2022/12/19 01:52:07;;;;;;;78.68;33.85;;;;;;;;;;6269650;28;20107;-74
2022/12/19 01:55:09;;;;;;;77.45;35.00;;;;;;;;;;6265619;28;20057;-74
2022/12/19 01:58:13;;;;;;;79.05;37.17;;;;;;;;;;6269257;28;20063;-76
2022/12/19 02:01:17;;;;;;;86.63;36.25;;;;;;;;;;6266557;28;20133;-76
2022/12/19 02:04:20;;;;;;;91.57;38.50;;;;;;;;;;6268734;28;20048;-76
2022/12/19 02:07:23;;;;;;;101.63;39.95;;;;;;;;;;6268531;28;20108;-76
2022/12/19 02:10:25;;;;;;;93.53;38.50;;;;;;;;;;6266982;28;20045;-76
2022/12/19 02:13:28;;;;;;;89.13;36.65;;;;;;;;;;6267895;28;20095;-76
2022/12/19 02:16:41;;;;;;;89.65;38.13;;;;;;;;;;6266305;28;20554;-76
2022/12/19 02:20:12;;;;;;;90.35;35.35;;;;;;;;;;6269107;28;21397;-75
2022/12/19 02:23:37;;;;;;;94.32;37.30;;;;;;;;;;6267322;28;20056;-76
2022/12/19 02:26:53;;;;;;;93.47;35.63;;;;;;;;;;6269003;28;20045;-76
2022/12/19 02:30:07;;;;;;;90.22;35.50;;;;;;;;;;6265218;28;20343;-75
2022/12/19 02:33:16;;;;;;;90.03;36.80;;;;;;;;;;6268734;28;20045;-75
2022/12/19 02:36:19;;;;;;;86.10;35.17;;;;;;;;;;6267367;28;20057;-74
2022/12/19 02:39:26;;;;;;;83.87;34.93;;;;;;;;;;6265980;28;20098;-73
2022/12/19 02:42:29;;;;;;;82.82;33.95;;;;;;;;;;6267594;28;20467;-75
2022/12/19 02:45:34;;;;;;;88.15;37.85;;;;;;;;;;6266202;28;20044;-74
2022/12/19 02:48:38;;;;;;;87.55;34.95;;;;;;;;;;6268566;28;20053;-75
2022/12/19 02:51:39;;;;;;;92.90;38.10;;;;;;;;;;6263207;28;20111;-73
2022/12/19 02:54:41;;;;;;;91.60;33.47;;;;;;;;;;6266996;28;20100;-75
2022/12/19 02:57:53;;;;;;;92.07;37.83;;;;;;;;;;6264507;28;20080;-75
2022/12/19 03:01:00;;;;;;;86.70;34.78;;;;;;;;;;6264442;28;20257;-74
2022/12/19 03:04:12;;;;;;;90.20;34.97;;;;;;;;;;6265089;28;20112;-74
2022/12/19 03:07:20;;;;;;;88.95;34.90;;;;;;;;;;6267974;28;20053;-74
2022/12/19 03:10:28;;;;;;;88.43;35.95;;;;;;;;;;6265007;28;20087;-74
2022/12/19 03:13:32;;;;;;;86.10;34.38;;;;;;;;;;6265514;28;20057;-74
2022/12/19 03:16:34;;;;;;;92.10;36.58;;;;;;;;;;6266083;28;20053;-75
2022/12/19 03:19:39;;;;;;;89.57;34.25;;;;;;;;;;6266584;28;20061;-75
2022/12/19 03:22:40;;;;;;;;;;;;;;;;;;6264047;28;20053;-75
2022/12/19 03:25:45;;;;;;;88.55;35.63;;;;;;;;;;6265454;28;19917;-75
2022/12/19 03:28:49;;;;;;;91.97;36.40;;;;;;;;;;6264886;28;20066;-75
2022/12/19 03:31:52;;;;;;;92.20;36.30;;;;;;;;;;6266204;28;20041;-76
2022/12/19 03:34:58;;;;;;;76.32;34.15;;;;;;;;;;6267312;28;20043;-75
2022/12/19 03:38:02;;;;;;;73.20;33.55;;;;;;;;;;6266203;28;20059;-75
2022/12/19 03:41:06;;;;;;;76.70;32.42;;;;;;;;;;6265718;28;20053;-75
2022/12/19 03:44:08;;;;;;;70.13;32.58;;;;;;;;;;6263562;28;20406;-74
2022/12/19 03:47:15;;;;;;;69.05;31.55;;;;;;;;;;6265056;28;20791;-75
2022/12/19 03:50:19;;;;;;;69.03;30.40;;;;;;;;;;6265478;28;20049;-74
2022/12/19 03:53:30;;;;;;;60.47;29.38;;;;;;;;;;6265077;28;20288;-75
2022/12/19 03:56:37;;;;;;;69.20;29.55;;;;;;;;;;6265685;28;20226;-74
2022/12/19 03:59:41;;;;;;;64.45;29.60;;;;;;;;;;6263809;28;20069;-75
2022/12/19 04:02:45;;;;;;;74.70;30.85;;;;;;;;;;6265562;28;20049;-75
2022/12/19 04:05:49;;;;;;;76.00;31.95;;;;;;;;;;6267414;28;20260;-74
2022/12/19 04:08:51;;;;;;;66.15;31.13;;;;;;;;;;6263633;28;20053;-74
2022/12/19 04:11:54;;;;;;;62.08;31.05;;;;;;;;;;6261826;28;20053;-74
2022/12/19 04:14:56;;;;;;;76.40;31.43;;;;;;;;;;6266295;28;20049;-74
2022/12/19 04:17:58;;;;;;;68.28;30.15;;;;;;;;;;6261687;28;20053;-75
2022/12/19 04:21:06;;;;;;;70.32;30.55;;;;;;;;;;6264390;28;20607;-75
2022/12/19 04:24:13;;;;;;;67.75;31.85;;;;;;;;;;6263215;28;20186;-75
2022/12/19 04:27:15;;;;;;;69.95;30.27;;;;;;;;;;6261789;28;20053;-73
2022/12/19 04:30:18;;;;;;;61.92;28.83;;;;;;;;;;6259991;28;20053;-75
2022/12/19 04:33:20;;;;;;;72.95;30.58;;;;;;;;;;6264196;28;20309;-77
2022/12/19 04:36:23;;;;;;;76.15;30.85;;;;;;;;;;6259976;28;20049;-74
2022/12/19 04:39:25;;;;;;;76.45;28.58;;;;;;;;;;6264232;28;20084;-76
2022/12/19 04:42:27;;;;;;;79.95;31.75;;;;;;;;;;6263156;28;20098;-77
2022/12/19 04:45:28;;;;;;;68.65;29.67;;;;;;;;;;6263601;28;20072;-77
2022/12/19 04:48:30;;;;;;;80.47;30.90;;;;;;;;;;6262650;28;20103;-76
2022/12/19 04:51:33;;;;;;;74.50;30.50;;;;;;;;;;6265752;28;20061;-77
2022/12/19 04:54:35;;;;;;;70.78;30.23;;;;;;;;;;6267294;28;20057;-74
2022/12/19 04:57:37;;;;;;;75.47;28.95;;;;;;;;;;6262878;28;20064;-76
2022/12/19 05:00:38;;;;;;;75.90;29.88;;;;;;;;;;6259201;28;20060;-75
2022/12/19 05:03:40;;;;;;;81.75;30.52;;;;;;;;;;6263516;28;20053;-75
2022/12/19 05:06:44;;;;;;;70.85;30.58;;;;;;;;;;6264146;28;20060;-74
2022/12/19 05:09:45;;;;;;;70.95;30.50;;;;;;;;;;6263390;28;20060;-74
2022/12/19 05:12:47;;;;;;;72.10;30.45;;;;;;;;;;6260763;28;20083;-74
2022/12/19 05:15:55;;;;;;;73.18;29.30;;;;;;;;;;6259165;28;20049;-74
2022/12/19 05:18:57;;;;;;;62.20;28.60;;;;;;;;;;6263639;28;20044;-76
2022/12/19 05:22:00;;;;;;;68.35;28.52;;;;;;;;;;6262695;28;20103;-74
2022/12/19 05:25:02;;;;;;;64.50;29.42;;;;;;;;;;6264371;28;20048;-76
2022/12/19 05:28:04;;;;;;;72.32;28.92;;;;;;;;;;6261522;28;20053;-76
2022/12/19 05:31:07;;;;;;;61.67;27.98;;;;;;;;;;6262559;28;20240;-77
2022/12/19 05:34:09;;;;;;;64.23;27.03;;;;;;;;;;6260414;28;20059;-75
2022/12/19 05:37:12;;;;;;;63.72;28.58;;;;;;;;;;6262641;28;20118;-74
2022/12/19 05:40:14;;;;;;;64.18;27.02;;;;;;;;;;6262709;28;20091;-77
2022/12/19 05:43:16;;;;;;;57.33;26.38;;;;;;;;;;6263004;28;20415;-76
2022/12/19 05:46:18;;;;;;;60.67;26.50;;;;;;;;;;6263691;28;20045;-77
2022/12/19 05:49:20;;;;;;;55.55;26.17;;;;;;;;;;6272594;28;20063;-73
2022/12/19 05:52:23;;;;;;;61.90;24.95;;;;;;;;;;6272905;28;20327;-78
2022/12/19 05:55:25;;;;;;;55.07;26.00;;;;;;;;;;6272931;28;20175;-76
2022/12/19 05:58:26;;;;;;;56.42;27.45;;;;;;;;;;6272342;28;20072;-77
2022/12/19 06:01:29;;;;;;;53.25;25.73;;;;;;;;;;6269797;28;20059;-74
2022/12/19 06:04:30;;;;;;;55.25;26.25;;;;;;;;;;6271929;28;20067;-77
2022/12/19 06:07:34;;;;;;;58.92;25.13;;;;;;;;;;6270765;28;20045;-77
2022/12/19 06:10:35;;;;;;;57.05;26.73;;;;;;;;;;6271402;28;20099;-78
2022/12/19 06:13:38;;;;;;;54.15;24.60;;;;;;;;;;6271282;28;20049;-78
2022/12/19 06:16:40;;;;;;;52.90;26.23;;;;;;;;;;6273896;28;20052;-78
2022/12/19 06:19:41;;;;;;;55.03;25.58;;;;;;;;;;6269399;28;20056;-78
2022/12/19 06:22:45;;;;;;;58.22;26.30;;;;;;;;;;6267393;28;20048;-75
2022/12/19 06:25:46;;;;;;;56.22;25.95;;;;;;;;;;6264520;28;20056;-76
2022/12/19 06:28:49;;;;;;;57.50;25.85;;;;;;;;;;6267371;28;20048;-77
2022/12/19 06:31:50;;;;;;;65.15;28.38;;;;;;;;;;6264576;28;20614;-78
2022/12/19 06:34:52;;;;;;;63.15;28.20;;;;;;;;;;6265817;28;20064;-77
2022/12/19 06:37:55;;;;;;;59.72;26.88;;;;;;;;;;6266594;28;20053;-76
2022/12/19 06:44:17;;;;;;;56.20;26.67;;;;;;;;;;6265803;28;20049;-76
2022/12/19 06:47:20;;;;;;;54.38;25.67;;;;;;;;;;6265256;28;20055;-78
2022/12/19 06:50:21;;;;;;;56.47;26.63;;;;;;;;;;6267181;28;20332;-79
2022/12/19 06:53:25;;;;;;;56.35;25.83;;;;;;;;;;6266394;28;20060;-80
2022/12/19 06:56:27;;;;;;;52.10;26.47;;;;;;;;;;6269066;28;20049;-77
2022/12/19 06:59:28;;;;;;;58.03;28.48;;;;;;;;;;6262366;28;20057;-76
2022/12/19 07:02:31;;;;;;;55.42;26.85;;;;;;;;;;6262988;28;20064;-78
2022/12/19 07:05:32;;;;;;;58.83;27.23;;;;;;;;;;6264820;28;20045;-79
2022/12/19 07:08:35;;;;;;;57.90;28.05;;;;;;;;;;6266127;28;20622;-79
2022/12/19 07:11:37;;;;;;;59.33;27.77;;;;;;;;;;6264249;28;20053;-78
2022/12/19 07:14:39;;;;;;;56.65;28.10;;;;;;;;;;6268299;28;20057;-76
2022/12/19 07:17:41;;;;;;;55.72;26.40;;;;;;;;;;6262853;28;20126;-76
2022/12/19 07:20:42;;;;;;;55.63;26.17;;;;;;;;;;6265457;28;20056;-74
2022/12/19 07:23:46;;;;;;;56.00;27.77;;;;;;;;;;6265524;28;20336;-74
2022/12/19 07:26:48;;;;;;;65.10;27.53;;;;;;;;;;6264882;28;20064;-74
2022/12/19 07:29:49;;;;;;;58.13;28.08;;;;;;;;;;6266209;28;20708;-74
2022/12/19 07:32:51;;;;;;;54.08;26.58;;;;;;;;;;6268361;28;20255;-73
2022/12/19 07:35:52;;;;;;;57.97;27.33;;;;;;;;;;6272927;28;20059;-74
2022/12/19 07:38:56;;;;;;;62.97;27.00;;;;;;;;;;6267441;28;20049;-74
2022/12/19 07:41:57;;;;;;;57.30;26.15;;;;;;;;;;6264200;28;20053;-74
2022/12/19 07:45:00;;;;;;;54.97;27.88;;;;;;;;;;6267265;28;20341;-74
2022/12/19 07:48:02;;;;;;;58.05;26.83;;;;;;;;;;6265045;28;20044;-74
2022/12/19 07:51:04;;;;;;;57.63;27.98;;;;;;;;;;6264203;28;20060;-77
2022/12/19 07:54:07;;;;;;;60.17;26.15;;;;;;;;;;6265648;28;20059;-75
2022/12/19 07:57:09;;;;;;;55.58;26.52;;;;;;;;;;6266646;28;20049;-76
2022/12/19 08:00:12;;;;;;;49.42;25.38;;;;;;;;;;6264175;28;20053;-76
2022/12/19 08:03:13;;;;;;;49.03;23.73;;;;;;;;;;6264447;28;20095;-75
2022/12/19 08:06:15;;;;;;;47.75;24.42;;;;;;;;;;6264788;28;20091;-77
2022/12/19 08:09:18;;;;;;;48.47;25.00;;;;;;;;;;6263964;28;20049;-77
2022/12/19 08:12:20;;;;;;;50.60;25.45;;;;;;;;;;6264480;28;20037;-78
2022/12/19 08:15:22;;;;;;;45.05;23.90;;;;;;;;;;6264099;28;20056;-78
2022/12/19 08:18:24;;;;;;;44.90;24.27;;;;;;;;;;6261049;28;20041;-78
2022/12/19 08:21:26;;;;;;;45.95;23.63;;;;;;;;;;6263263;28;20049;-78
2022/12/19 08:24:29;;;;;;;42.38;22.58;;;;;;;;;;6264889;28;20049;-84
2022/12/19 08:27:31;;;;;;;48.13;25.05;;;;;;;;;;6262865;28;20447;-76
2022/12/19 08:30:33;;;;;;;42.65;22.50;;;;;;;;;;6262889;28;20061;-79
2022/12/19 08:33:35;;;;;;;45.38;24.23;;;;;;;;;;6264722;28;20107;-79
2022/12/19 08:36:38;;;;;;;44.33;24.45;;;;;;;;;;6265957;28;20059;-78
2022/12/19 08:39:41;;;;;;;44.45;23.65;;;;;;;;;;6259561;28;20127;-80
2022/12/19 08:42:43;;;;;;;42.40;24.05;;;;;;;;;;6264998;28;20049;-77
2022/12/19 08:45:45;;;;;;;46.10;23.80;;;;;;;;;;6261865;28;20103;-78
2022/12/19 08:48:47;;;;;;;41.13;22.95;;;;;;;;;;6261858;28;20099;-77
2022/12/19 08:51:48;;;;;;;45.10;24.13;;;;;;;;;;6262015;28;20056;-79
2022/12/19 08:54:51;;;;;;;43.78;23.83;;;;;;;;;;6260390;28;20240;-77
2022/12/19 08:57:53;;;;;;;42.47;24.08;;;;;;;;;;6264039;28;20045;-72
2022/12/19 09:00:58;;;;;;;46.92;22.73;;;;;;;;;;6261123;28;20048;-77
2022/12/19 09:04:00;;;;;;;44.75;23.95;;;;;;;;;;6263975;28;20091;-77
2022/12/19 09:07:02;;;;;;;41.85;23.95;;;;;;;;;;6260283;28;20053;-77
2022/12/19 09:10:06;;;;;;;45.15;24.55;;;;;;;;;;6263104;28;20114;-76
2022/12/19 09:13:08;;;;;;;43.35;24.00;;;;;;;;;;6263884;28;20107;-76
2022/12/19 09:16:12;;;;;;;46.10;24.77;;;;;;;;;;6263879;28;20317;-77
2022/12/19 09:19:15;;;;;;;;;;;;;;;;;;6264518;28;20061;-77
2022/12/19 09:22:16;;;;;;;45.35;23.25;;;;;;;;;;6264806;28;19917;-77
2022/12/19 09:25:20;;;;;;;46.75;25.23;;;;;;;;;;6266968;28;20052;-76
2022/12/19 09:28:22;;;;;;;43.95;24.73;;;;;;;;;;6267008;28;20045;-77
2022/12/19 09:31:24;;;;;;;48.90;26.15;;;;;;;;;;6266900;28;20049;-77
2022/12/19 09:34:27;;;;;;;45.72;24.45;;;;;;;;;;6271295;28;20099;-78
2022/12/19 09:37:29;;;;;;;52.70;26.15;;;;;;;;;;6268983;28;20206;-78
2022/12/19 09:40:42;;;;;;;46.13;25.83;;;;;;;;;;6272416;28;20167;-77
2022/12/19 09:43:54;;;;;;;46.77;25.13;;;;;;;;;;6266149;28;20352;-77
2022/12/19 09:46:57;;;;;;;44.80;24.17;;;;;;;;;;6265253;28;20482;-77
2022/12/19 09:50:00;;;;;;;44.20;25.50;;;;;;;;;;6267512;28;20049;-77
2022/12/19 09:53:03;;;;;;;45.15;25.48;;;;;;;;;;6267652;28;20344;-77
2022/12/19 09:56:12;;;;;;;47.10;24.73;;;;;;;;;;6267017;28;20057;-78
2022/12/19 09:59:19;;;;;;;41.80;22.58;;;;;;;;;;6266650;28;20057;-76
2022/12/19 10:02:31;;;;;;;35.03;21.90;;;;;;;;;;6263594;28;20164;-77
2022/12/19 10:05:38;;;;;;;42.90;23.20;;;;;;;;;;6270196;28;20256;-75
2022/12/19 10:08:42;;;;;;;46.78;24.30;;;;;;;;;;6267327;28;20053;-77
2022/12/19 10:11:54;;;;;;;43.40;24.45;;;;;;;;;;6267243;28;20057;-76
2022/12/19 10:15:03;;;;;;;41.97;23.48;;;;;;;;;;6267445;28;20049;-77
2022/12/19 10:18:17;;;;;;;39.83;23.70;;;;;;;;;;6264704;28;20187;-78
2022/12/19 10:21:29;;;;;;;42.78;24.13;;;;;;;;;;6266904;28;20099;-77
2022/12/19 10:24:49;;;;;;;42.30;23.98;;;;;;;;;;6266372;28;20368;-75
2022/12/19 10:27:56;;;;;;;44.35;23.95;;;;;;;;;;6264461;28;20053;-76
2022/12/19 10:31:04;;;;;;;55.08;24.45;;;;;;;;;;6264192;28;20056;-77
2022/12/19 10:34:13;;;;;;;41.58;23.92;;;;;;;;;;6268069;28;20044;-78
2022/12/19 10:37:19;;;;;;;43.83;24.63;;;;;;;;;;6266257;28;20236;-77
2022/12/19 10:40:26;;;;;;;40.83;23.33;;;;;;;;;;6264336;28;20045;-78
2022/12/19 10:43:39;;;;;;;45.75;24.15;;;;;;;;;;6266332;28;20229;-75
2022/12/19 10:46:42;;;;;;;42.20;23.23;;;;;;;;;;6266078;28;20056;-78
2022/12/19 10:49:44;;;;;;;45.05;24.58;;;;;;;;;;6271267;28;20099;-78
2022/12/19 10:52:51;;;;;;;39.65;22.63;;;;;;;;;;6268756;28;20048;-79
2022/12/19 10:55:53;;;;;;;35.28;21.23;;;;;;;;;;6269312;28;20052;-77
2022/12/19 10:58:58;;;;;;;42.20;22.00;;;;;;;;;;6261921;28;20079;-77
2022/12/19 11:02:00;;;;;;;39.58;22.77;;;;;;;;;;6265669;28;20267;-76
2022/12/19 11:05:02;;;;;;;37.25;21.23;;;;;;;;;;6266937;28;20053;-77
2022/12/19 11:08:14;;;;;;;38.88;21.20;;;;;;;;;;6263256;28;20056;-76
2022/12/19 11:11:15;;;;;;;35.65;20.75;;;;;;;;;;6264607;28;20893;-76
2022/12/19 11:14:25;;;;;;;61.45;35.65;;;;;;;;;;6267041;28;20103;-79
2022/12/19 11:17:28;;;;;;;106.28;51.17;;;;;;;;;;6266457;28;20110;-78
2022/12/19 11:20:30;;;;;;;46.87;24.73;;;;;;;;;;6267988;28;20044;-77
2022/12/19 11:23:32;;;;;;;39.78;22.88;;;;;;;;;;6263863;28;20057;-76
2022/12/19 11:26:36;;;;;;;42.92;24.13;;;;;;;;;;6265824;28;20053;-76
2022/12/19 11:29:44;;;;;;;44.28;24.08;;;;;;;;;;6264758;28;20049;-76
2022/12/19 11:32:47;;;;;;;39.13;23.50;;;;;;;;;;6266936;28;20135;-76
2022/12/19 11:35:52;;;;;;;42.92;22.60;;;;;;;;;;6263835;28;20107;-75
2022/12/19 11:38:53;;;;;;;;;;;;;;;;;;6269194;28;20049;-72
2022/12/19 11:42:00;;;;;;;40.63;22.85;;;;;;;;;;6263295;28;20001;-76
2022/12/19 11:45:11;;;;;;;44.63;24.30;;;;;;;;;;6264326;28;21011;-76
2022/12/19 11:48:20;;;;;;;40.92;22.83;;;;;;;;;;6263396;28;20103;-75
2022/12/19 11:51:25;;;;;;;42.88;24.83;;;;;;;;;;6268122;28;20052;-76
2022/12/19 11:54:30;;;;;;;38.17;22.25;;;;;;;;;;6264023;28;20044;-77
2022/12/19 11:57:32;;;;;;;44.33;23.75;;;;;;;;;;6265130;28;20341;-75
2022/12/19 12:00:35;;;;;;;40.50;22.38;;;;;;;;;;6265231;28;20144;-74
2022/12/19 12:03:44;;;;;;;41.42;24.23;;;;;;;;;;6263625;28;20119;-77
2022/12/19 12:06:48;;;;;;;43.08;24.17;;;;;;;;;;6264567;28;20119;-78
2022/12/19 12:09:54;;;;;;;41.45;22.73;;;;;;;;;;6265500;28;20053;-78
2022/12/19 12:13:03;;;;;;;44.10;23.55;;;;;;;;;;6266214;28;20049;-75
2022/12/19 12:16:10;;;;;;;47.30;23.15;;;;;;;;;;6264921;28;20049;-77
2022/12/19 12:19:18;;;;;;;42.05;23.58;;;;;;;;;;6267279;28;20068;-77
2022/12/19 12:22:34;;;;;;;45.22;23.00;;;;;;;;;;6263930;28;20053;-77
2022/12/19 12:25:47;;;;;;;40.45;24.25;;;;;;;;;;6263084;28;20067;-75
2022/12/19 12:28:56;;;;;;;42.90;23.67;;;;;;;;;;6264852;28;20057;-75
2022/12/19 12:32:07;;;;;;;38.03;21.80;;;;;;;;;;6263558;28;20359;-77
2022/12/19 12:35:19;;;;;;;42.38;23.40;;;;;;;;;;6265776;28;20075;-77
2022/12/19 12:38:38;;;;;;;42.08;23.92;;;;;;;;;;6263292;28;20542;-76
2022/12/19 12:42:05;;;;;;;41.75;23.48;;;;;;;;;;6262424;28;20170;-76
2022/12/19 12:45:18;;;;;;;40.45;21.58;;;;;;;;;;6264255;28;20383;-74
2022/12/19 12:48:26;;;;;;;42.60;24.58;;;;;;;;;;6265441;28;20052;-73
2022/12/19 12:51:28;;;;;;;40.95;23.40;;;;;;;;;;6264263;28;20056;-76
2022/12/19 12:54:34;;;;;;;43.40;23.20;;;;;;;;;;6264218;28;20053;-76
2022/12/19 12:57:37;;;;;;;43.97;23.35;;;;;;;;;;6263886;28;20123;-76
2022/12/19 13:00:39;;;;;;;44.33;24.40;;;;;;;;;;6264142;28;20049;-78
2022/12/19 13:03:42;;;;;;;49.45;23.90;;;;;;;;;;6262768;28;20052;-79
2022/12/19 13:07:03;;;;;;;40.08;22.73;;;;;;;;;;6263446;28;20214;-76
2022/12/19 13:10:16;;;;;;;43.13;23.77;;;;;;;;;;6265632;28;20057;-77
2022/12/19 13:13:18;;;;;;;49.42;25.08;;;;;;;;;;6265860;28;20049;-77
2022/12/19 13:16:48;;;;;;;47.40;25.20;;;;;;;;;;6263225;28;20135;-73
2022/12/19 13:19:56;;;;;;;45.13;23.98;;;;;;;;;;6262690;28;20095;-77
2022/12/19 13:23:04;;;;;;;46.22;25.30;;;;;;;;;;6264028;28;20272;-76
2022/12/19 13:26:20;;;;;;;44.42;23.55;;;;;;;;;;6262668;28;20076;-76
2022/12/19 13:29:52;;;;;;;45.80;24.70;;;;;;;;;;6263433;28;20317;-77
2022/12/19 13:33:08;;;;;;;59.22;25.55;;;;;;;;;;6261534;28;20053;-77
2022/12/19 13:36:43;;;;;;;43.03;22.85;;;;;;;;;;6265250;28;20088;-75
2022/12/19 13:40:00;;;;;;;49.60;25.08;;;;;;;;;;6262612;28;20103;-77
2022/12/19 13:46:37;;;;;;;46.15;24.50;;;;;;;;;;6263832;28;20056;-77
2022/12/19 13:49:39;;;;;;;53.85;26.70;;;;;;;;;;6264171;28;20128;-76
2022/12/19 13:52:41;;;;;;;52.35;27.10;;;;;;;;;;6263288;28;20464;-77
2022/12/19 13:55:44;;;;;;;49.97;25.20;;;;;;;;;;6263239;28;20064;-75
2022/12/19 13:58:48;;;;;;;52.83;27.17;;;;;;;;;;6261776;28;20057;-76
2022/12/19 14:01:51;;;;;;;54.97;24.15;;;;;;;;;;6263591;28;20061;-76
2022/12/19 14:04:53;;;;;;;46.88;23.10;;;;;;;;;;6264737;28;20126;-75
2022/12/19 14:07:55;;;;;;;52.03;23.88;;;;;;;;;;6263508;28;20197;-78
2022/12/19 14:10:59;;;;;;;47.47;24.17;;;;;;;;;;6266459;28;20191;-79
2022/12/19 14:17:22;;;;;;;50.40;24.30;;;;;;;;;;6269626;28;20045;-78
2022/12/19 14:20:25;;;;;;;58.58;27.02;;;;;;;;;;6271060;28;20230;-78
2022/12/19 14:23:27;;;;;;;49.77;26.50;;;;;;;;;;6267932;28;20063;-76
2022/12/19 14:26:32;;;;;;;48.15;25.05;;;;;;;;;;6266842;28;20468;-78
2022/12/19 14:29:35;;;;;;;50.13;26.17;;;;;;;;;;6267446;28;20045;-79
2022/12/19 14:32:37;;;;;;;50.03;24.92;;;;;;;;;;6270371;28;20065;-79
2022/12/19 14:35:45;;;;;;;52.95;26.55;;;;;;;;;;6270655;28;20345;-74
2022/12/19 14:38:48;;;;;;;51.58;26.77;;;;;;;;;;6267624;28;20096;-74
2022/12/19 14:45:35;;;;;;;49.60;25.75;;;;;;;;;;6270349;28;20115;-75
2022/12/19 14:48:47;;;;;;;52.95;25.45;;;;;;;;;;6269130;28;20107;-76
2022/12/19 14:51:49;;;;;;;61.70;25.88;;;;;;;;;;6272148;28;20294;-77
2022/12/19 14:55:23;;;;;;;44.08;23.55;;;;;;;;;;6268816;28;20053;-77
2022/12/19 14:58:31;;;;;;;47.42;23.50;;;;;;;;;;6266788;28;20057;-74
2022/12/19 15:01:34;;;;;;;41.97;21.63;;;;;;;;;;6271144;28;20049;-77
2022/12/19 15:04:39;;;;;;;45.13;22.35;;;;;;;;;;6268959;28;20069;-76
2022/12/19 15:07:45;;;;;;;38.47;20.17;;;;;;;;;;6261708;28;20353;-75
2022/12/19 15:10:47;;;;;;;40.67;21.98;;;;;;;;;;6279229;28;20232;-76
2022/12/19 15:13:53;;;;;;;36.35;20.42;;;;;;;;;;6267808;28;20063;-74
2022/12/19 15:17:16;;;;;;;40.42;21.42;;;;;;;;;;6268366;28;20342;-77
2022/12/19 15:20:18;;;;;;;38.45;21.23;;;;;;;;;;6268562;28;20049;-76
2022/12/19 15:23:20;;;;;;;36.92;20.05;;;;;;;;;;6268264;28;20134;-76
2022/12/19 15:26:27;;;;;;;35.20;18.35;;;;;;;;;;6265220;28;20049;-75
2022/12/19 15:29:30;;;;;;;37.72;19.60;;;;;;;;;;6267286;28;20045;-78
2022/12/19 15:32:32;;;;;;;32.38;18.65;;;;;;;;;;6268491;28;20056;-78
2022/12/19 15:35:34;;;;;;;35.13;19.38;;;;;;;;;;6265331;28;20061;-78
2022/12/19 15:38:36;;;;;;;32.55;19.80;;;;;;;;;;6269258;28;20056;-78
2022/12/19 15:41:37;;;;;;;34.35;18.45;;;;;;;;;;6269853;28;20049;-78
2022/12/19 15:44:41;;;;;;;38.30;21.05;;;;;;;;;;6269194;28;20050;-78
2022/12/19 15:47:43;;;;;;;34.20;20.98;;;;;;;;;;6264479;28;20155;-78
2022/12/19 15:50:45;;;;;;;35.80;19.48;;;;;;;;;;6266609;28;20049;-79
2022/12/19 15:53:47;;;;;;;45.70;21.08;;;;;;;;;;6263183;28;20131;-78
2022/12/19 15:56:51;;;;;;;42.17;18.33;;;;;;;;;;6264350;28;20095;-78
2022/12/19 15:59:55;;;;;;;38.00;19.95;;;;;;;;;;6267193;28;20799;-78
2022/12/19 16:02:56;;;;;;;40.95;20.60;;;;;;;;;;6266539;28;21518;-79
2022/12/19 16:05:58;;;;;;;32.85;19.45;;;;;;;;;;6264543;28;20347;-78
2022/12/19 16:09:00;;;;;;;37.05;19.77;;;;;;;;;;6265547;28;20045;-78
2022/12/19 16:12:01;;;;;;;35.88;19.58;;;;;;;;;;6269782;28;20053;-78
2022/12/19 16:15:06;;;;;;;33.78;19.42;;;;;;;;;;6265993;28;20049;-79
2022/12/19 16:18:13;;;;;;;36.47;20.02;;;;;;;;;;6263365;28;20067;-77
2022/12/19 16:21:20;;;;;;;34.70;19.50;;;;;;;;;;6264218;28;20057;-81
2022/12/19 16:24:22;;;;;;;40.17;20.15;;;;;;;;;;6263281;28;20989;-79
2022/12/19 16:27:26;;;;;;;35.97;20.20;;;;;;;;;;6264317;28;20351;-81
2022/12/19 16:30:31;;;;;;;36.00;19.73;;;;;;;;;;6263760;28;20036;-81
2022/12/19 16:33:32;;;;;;;34.40;20.73;;;;;;;;;;6267951;28;20049;-81
2022/12/19 16:36:34;;;;;;;34.72;20.23;;;;;;;;;;6266217;28;20056;-80
2022/12/19 16:39:36;;;;;;;37.55;21.10;;;;;;;;;;6266920;28;20455;-83
2022/12/19 16:42:39;;;;;;;34.28;19.77;;;;;;;;;;6262582;28;20387;-84
2022/12/19 16:45:43;;;;;;;36.25;20.45;;;;;;;;;;6261546;28;20154;-82
2022/12/19 16:48:45;;;;;;;38.80;21.58;;;;;;;;;;6262399;28;20053;-79
2022/12/19 16:51:47;;;;;;;33.38;20.77;;;;;;;;;;6265875;28;20112;-82
2022/12/19 16:54:50;;;;;;;38.13;21.02;;;;;;;;;;6265628;28;20060;-81
2022/12/19 16:57:55;;;;;;;43.15;22.52;;;;;;;;;;6269666;28;20279;-82
2022/12/19 17:00:58;;;;;;;36.45;21.38;;;;;;;;;;6264093;28;20393;-81
2022/12/19 17:04:00;;;;;;;41.08;22.77;;;;;;;;;;6264009;28;20490;-82
2022/12/19 17:07:02;;;;;;;35.75;21.70;;;;;;;;;;6270416;28;20068;-82
2022/12/19 17:10:04;;;;;;;41.45;22.73;;;;;;;;;;6263629;28;20104;-77
2022/12/19 17:13:05;;;;;;;41.67;23.60;;;;;;;;;;6268400;28;20094;-83
2022/12/19 17:16:09;;;;;;;40.10;23.05;;;;;;;;;;6265615;28;20106;-83
2022/12/19 17:19:17;;;;;;;38.38;22.13;;;;;;;;;;6262342;28;20045;-74
2022/12/19 17:22:20;;;;;;;38.95;22.75;;;;;;;;;;6263383;28;20045;-82
2022/12/19 17:25:23;;;;;;;40.83;23.48;;;;;;;;;;6265078;28;20053;-79
2022/12/19 17:28:25;;;;;;;41.45;23.92;;;;;;;;;;6261975;28;20056;-83
2022/12/19 17:31:28;;;;;;;42.47;23.83;;;;;;;;;;6262268;28;20063;-82
2022/12/19 17:34:31;;;;;;;42.97;23.73;;;;;;;;;;6263449;28;20163;-83
2022/12/19 17:37:33;;;;;;;45.30;25.88;;;;;;;;;;6262576;28;20056;-82
2022/12/19 17:40:35;;;;;;;41.83;23.40;;;;;;;;;;6264278;28;20064;-82
2022/12/19 17:43:36;;;;;;;46.33;25.67;;;;;;;;;;6263087;28;20090;-83
2022/12/19 17:46:40;;;;;;;47.10;25.23;;;;;;;;;;6265696;28;20099;-83
2022/12/19 17:49:41;;;;;;;47.05;25.50;;;;;;;;;;6269416;28;20056;-83
2022/12/19 17:52:44;;;;;;;43.53;25.27;;;;;;;;;;6269293;28;20283;-82
2022/12/19 17:55:45;;;;;;;44.17;24.63;;;;;;;;;;6266438;28;20053;-82
2022/12/19 17:58:48;;;;;;;46.70;26.80;;;;;;;;;;6269338;28;20052;-80
2022/12/19 18:01:51;;;;;;;47.35;26.33;;;;;;;;;;6269721;28;20053;-79
2022/12/19 18:04:53;;;;;;;51.13;26.52;;;;;;;;;;6272130;28;20248;-80
2022/12/19 18:07:55;;;;;;;47.25;25.23;;;;;;;;;;6271048;28;20083;-79
2022/12/19 18:10:59;;;;;;;49.60;26.77;;;;;;;;;;6268043;28;20316;-77
2022/12/19 18:14:01;;;;;;;50.97;26.23;;;;;;;;;;6260644;28;20068;-81